Kansai International Airport
RJBB : now visible

Airfield :











YOU CAN JOIN US ON...

 
LOGIN :

Register | Disclaimer

   EN    FR    IT 

 









Legend :    VFR   Marginal VFR   IFR   Intensive IFR   Very Intensive IFR
Visi :
Ceiling :
>= 8 km
>= 3000ft
5 to 8 km
1000 to 3000 ft
1500m to 5 km
500 to 1000 ft
800 to 1500m
200 to 500 ft
< 800m
< 200 ft
Symbols :   Thunderstorms  Fog  Heavy snow  Heavy precipitations  Wind > 20 kt






- Airport Elevation : 26 ft
- IATA code : KIX


RJBB - Kansai International

CURRENT METAR :
  • 250200Z 25008KT 9999 -SHRA FEW015 SCT045 BKN150 25/23 Q1010 NOSIG

EXPIRED METARs :
  • 250130Z 25007KT 9999 -SHRA FEW015 SCT045 BKN150 24/23 Q1009 NOSIG
  • 250100Z 25008KT 9999 -SHRA FEW015 SCT040 BKN160 24/23 Q1009 NOSIG
  • 250030Z 26006KT 9999 FEW015 SCT120 BKN160 24/23 Q1009 NOSIG
  • 250000Z 29004KT 240V310 9999 FEW015 SCT120 BKN160 23/22 Q1009 NOSIG
  • 242330Z 24005KT 9999 FEW015 SCT100 BKN120 23/22 Q1009 NOSIG
  • 242300Z 23007KT 9999 FEW015 SCT050 BKN100 24/23 Q1009 NOSIG
  • 242230Z 22003KT 180V260 9999 FEW015 SCT050 BKN100 24/23 Q1009 NOSIG
  • 242130Z 23005KT 9999 FEW015 SCT050 BKN120 23/22 Q1009 NOSIG

TAF TAF RJBB
Valid from the 25 at 00:00 until the 26 at 06:00 UTC


242309Z 2500/2606 26007KT 9999 FEW015 SCT050
RJJJ FIR / Asia



MET'MAP, your aeronautical weather chart ! - Copyright ORBIFLY December 2007 - Disclaimer

ORBIFLY MET'MAP TEAM :

Programming & Development : Alexandra Zaïnal
Original concept : Baudouin d'Aumeries
Technical & hardware support : Manuel Goepfert
Assistance : Marc-Olivier Méhu




SOURCES & CREDITS :

   NOAA       Earth
Advisory